createdAt,value
2022-12-01T14:04:36.586Z,27.30
2022-12-01T14:07:37.970Z,29.13
2022-12-01T14:10:26.613Z,28.23
2022-12-01T14:13:01.636Z,28.65
2022-12-01T14:15:43.169Z,27.85
2022-12-01T14:18:32.823Z,26.77
2022-12-01T14:21:06.468Z,27.95
2022-12-01T14:23:37.585Z,26.20
2022-12-01T14:26:15.287Z,28.08
2022-12-01T14:29:27.405Z,27.08
2022-12-01T14:32:23.190Z,26.98
2022-12-01T14:34:56.504Z,28.75
2022-12-01T14:37:37.619Z,28.42
2022-12-01T14:40:14.091Z,29.30
2022-12-01T14:42:58.974Z,30.70
2022-12-01T14:45:35.305Z,30.63
2022-12-01T14:48:06.608Z,30.35
2022-12-01T14:50:45.184Z,31.40
2022-12-01T14:53:26.298Z,30.88
2022-12-01T14:55:58.073Z,28.92
2022-12-01T14:58:30.801Z,30.70
2022-12-01T15:01:07.904Z,27.95
2022-12-01T15:03:42.823Z,28.23
2022-12-01T15:06:17.432Z,28.27
2022-12-01T15:09:10.558Z,28.58
2022-12-01T15:11:40.054Z,28.25
2022-12-01T15:14:26.405Z,27.60
2022-12-01T15:16:55.253Z,29.98
2022-12-01T15:21:43.595Z,28.75
2022-12-01T15:24:23.895Z,29.63
2022-12-01T15:27:00.609Z,27.65
2022-12-01T15:29:45.967Z,26.98
2022-12-01T15:32:19.423Z,27.00
2022-12-01T15:34:50.805Z,26.38
2022-12-01T15:37:24.173Z,28.30
2022-12-01T15:40:11.894Z,27.48
2022-12-01T15:45:21.830Z,25.13
2022-12-01T15:47:54.980Z,24.95
2022-12-01T15:50:32.781Z,25.45
2022-12-01T15:53:08.256Z,26.10
2022-12-01T15:55:40.015Z,25.70
2022-12-01T15:58:11.020Z,26.88
2022-12-01T16:00:39.781Z,26.90
2022-12-01T16:03:15.193Z,25.00
2022-12-01T16:05:46.358Z,26.88
2022-12-01T16:08:23.073Z,26.38
2022-12-01T16:11:14.513Z,26.55
2022-12-01T16:13:49.493Z,26.50
2022-12-01T16:16:43.812Z,25.75
2022-12-01T16:19:31.063Z,25.10
2022-12-01T16:22:06.373Z,26.00
2022-12-01T16:24:45.897Z,26.60
2022-12-01T16:27:24.273Z,26.42
2022-12-01T16:29:56.485Z,27.08
2022-12-01T16:32:30.984Z,26.45
2022-12-01T16:35:00.136Z,25.77
2022-12-01T16:37:29.380Z,25.08
2022-12-01T16:40:00.496Z,25.08
2022-12-01T16:42:29.375Z,25.85
2022-12-01T16:44:58.167Z,26.50
2022-12-01T16:47:27.610Z,26.10
2022-12-01T16:49:56.515Z,26.00
2022-12-01T16:55:39.803Z,25.92
2022-12-01T16:58:08.680Z,26.35
2022-12-01T17:00:37.516Z,27.13
2022-12-01T17:03:07.296Z,25.55
2022-12-01T17:05:36.409Z,24.55
2022-12-01T17:08:06.272Z,24.92
2022-12-01T17:10:41.056Z,25.98
2022-12-01T17:13:09.902Z,25.17
2022-12-01T17:15:42.891Z,25.80
2022-12-01T17:18:12.383Z,24.75
2022-12-01T17:20:41.136Z,25.75
2022-12-01T17:23:10.092Z,26.35
2022-12-01T17:25:43.991Z,27.70
2022-12-01T17:28:12.938Z,28.42
2022-12-01T17:30:42.375Z,27.63
2022-12-01T17:33:11.174Z,27.90
2022-12-01T17:35:40.276Z,26.77
2022-12-01T17:38:08.998Z,26.98
2022-12-01T17:40:37.688Z,27.50
2022-12-01T17:43:09.026Z,28.17
2022-12-01T17:45:41.327Z,27.98
2022-12-01T17:48:10.393Z,26.98
2022-12-01T17:50:39.954Z,26.58
2022-12-01T17:53:08.730Z,28.02
2022-12-01T17:55:40.868Z,27.75
2022-12-01T17:58:11.491Z,28.13
2022-12-01T18:00:40.615Z,28.77
2022-12-01T18:03:09.423Z,27.88
2022-12-01T18:05:38.190Z,27.15
2022-12-01T18:08:16.440Z,26.73
2022-12-01T18:10:45.482Z,26.67
2022-12-01T18:13:16.216Z,26.20
2022-12-01T18:15:45.046Z,25.42
2022-12-01T18:18:18.114Z,26.25
2022-12-01T18:20:51.757Z,25.58
2022-12-01T18:23:25.408Z,27.08
2022-12-01T18:25:57.514Z,26.35
2022-12-01T18:28:30.619Z,28.77
2022-12-01T18:31:05.991Z,29.05
2022-12-01T18:33:35.814Z,28.55
2022-12-01T18:36:05.956Z,30.98
2022-12-01T18:38:36.724Z,28.58
2022-12-01T18:41:06.094Z,31.25
2022-12-01T18:43:37.851Z,31.00
2022-12-01T18:46:07.989Z,31.33
2022-12-01T18:48:36.919Z,32.30
2022-12-01T18:51:09.279Z,31.38
2022-12-01T18:53:38.284Z,32.95
2022-12-01T18:56:12.182Z,31.75
2022-12-01T18:58:43.142Z,32.95
2022-12-01T19:01:26.690Z,31.98
2022-12-01T19:03:57.263Z,32.90
2022-12-01T19:06:27.144Z,32.38
2022-12-01T19:08:59.520Z,32.20
2022-12-01T19:11:28.514Z,30.58
2022-12-01T19:13:59.770Z,32.10
2022-12-01T19:16:32.625Z,32.20
2022-12-01T19:19:05.797Z,31.08
2022-12-01T19:21:36.509Z,32.45
2022-12-01T19:24:07.765Z,31.05
2022-12-01T19:26:42.621Z,32.08
2022-12-01T19:29:17.980Z,32.30
2022-12-01T19:31:48.425Z,31.52
2022-12-01T19:34:17.312Z,32.10
2022-12-01T19:36:53.035Z,32.70
2022-12-01T19:39:21.932Z,30.55
2022-12-01T19:41:56.646Z,31.00
2022-12-01T19:44:27.323Z,30.45
2022-12-01T19:46:55.897Z,32.17
2022-12-01T19:49:24.585Z,33.25
2022-12-01T19:51:56.348Z,32.63
2022-12-01T19:54:28.372Z,34.60
2022-12-01T19:56:57.024Z,33.75
2022-12-01T19:59:30.374Z,32.70
2022-12-01T20:01:59.050Z,33.58
2022-12-01T20:04:30.475Z,33.55
2022-12-01T20:07:06.130Z,32.50
2022-12-01T20:09:50.102Z,33.85
2022-12-01T20:12:19.135Z,34.15
2022-12-01T20:14:53.336Z,36.10
2022-12-01T20:17:29.965Z,37.30
2022-12-01T20:19:58.617Z,37.15
2022-12-01T20:22:31.429Z,37.55
2022-12-01T20:25:00.302Z,37.95
2022-12-01T20:27:35.290Z,37.05
2022-12-01T20:30:12.441Z,37.40
2022-12-01T20:32:46.949Z,38.53
2022-12-01T20:35:18.638Z,38.65
2022-12-01T20:37:49.892Z,37.10
2022-12-01T20:40:22.840Z,35.40
2022-12-01T20:42:54.791Z,35.97
2022-12-01T20:47:55.787Z,36.75
2022-12-01T20:51:34.282Z,34.95
2022-12-01T20:57:56.972Z,36.45
2022-12-01T21:00:30.843Z,34.40
2022-12-01T21:02:59.555Z,37.10
2022-12-01T21:06:37.197Z,37.28
2022-12-01T21:09:06.860Z,37.72
2022-12-01T21:11:56.728Z,37.50
2022-12-01T21:14:31.434Z,37.53
2022-12-01T21:17:11.179Z,37.35
2022-12-01T21:19:46.830Z,37.47
2022-12-01T21:22:15.655Z,36.85
2022-12-01T21:24:52.031Z,36.85
2022-12-01T21:27:21.565Z,37.03
2022-12-01T21:29:51.758Z,36.47
2022-12-01T21:32:44.260Z,37.70
2022-12-01T21:35:29.014Z,36.83
2022-12-01T21:40:46.144Z,36.78
2022-12-01T21:44:04.146Z,37.15
2022-12-01T21:47:26.044Z,36.45
2022-12-01T21:50:20.348Z,38.92
2022-12-01T21:53:23.627Z,37.65
2022-12-01T21:56:34.844Z,37.63
2022-12-01T22:00:03.734Z,37.38
2022-12-01T22:06:29.752Z,36.83
2022-12-01T22:09:43.079Z,38.50
2022-12-01T22:15:42.243Z,37.25
2022-12-01T22:18:21.419Z,36.63
2022-12-01T22:20:50.116Z,38.13
2022-12-01T22:23:20.173Z,38.28
2022-12-01T22:25:49.513Z,37.55
2022-12-01T22:28:25.072Z,36.63
2022-12-01T22:30:54.187Z,37.38
2022-12-01T22:33:25.779Z,37.92
2022-12-01T22:35:54.981Z,38.53
2022-12-01T22:38:35.499Z,38.88
2022-12-01T22:41:07.648Z,38.50
2022-12-01T22:43:56.738Z,37.67
2022-12-01T22:46:30.709Z,37.83
2022-12-01T22:49:03.051Z,38.22
2022-12-01T22:51:41.109Z,36.03
2022-12-01T22:54:33.652Z,38.08
2022-12-01T22:57:27.333Z,38.38
2022-12-01T22:59:58.362Z,38.05
2022-12-01T23:02:33.867Z,38.07
2022-12-01T23:05:14.286Z,37.00
2022-12-01T23:07:45.254Z,37.10
2022-12-01T23:10:18.626Z,37.93
2022-12-01T23:12:50.293Z,38.00
2022-12-01T23:15:31.735Z,39.15
2022-12-01T23:18:11.078Z,39.35
2022-12-01T23:20:39.808Z,39.65
2022-12-01T23:23:15.272Z,39.00
2022-12-01T23:25:45.535Z,39.47
2022-12-01T23:28:15.184Z,38.42
2022-12-01T23:30:49.140Z,39.40
2022-12-01T23:33:22.146Z,41.03
2022-12-01T23:35:56.537Z,41.17
2022-12-01T23:38:27.710Z,43.75
2022-12-01T23:41:01.946Z,42.70
2022-12-01T23:43:35.101Z,41.58
2022-12-01T23:46:10.279Z,41.45
2022-12-01T23:48:43.701Z,41.22
2022-12-01T23:51:19.800Z,41.85
2022-12-01T23:53:48.874Z,41.75
2022-12-01T23:56:21.613Z,43.13
2022-12-01T23:58:50.689Z,43.65
